Terminal Aerodrome Forecast
Issued by NWS Atlanta, GA

Home | Current Version | Previous Version | Text Only | Print | Product List | Glossary On
Versions: 1 2 3 4 5 6 7 8 9 10 11 12 13 14 15
000
FTUS42 KFFC 021130
TAFMCN
TAF
KMCN 021130Z 0212/0312 00000KT 1/4SM +DZ FG VV001
     FM021400 VRB03KT 1SM -DZ BR OVC008
     FM021600 00000KT 6SM BR OVC010
     FM021800 30005KT P6SM OVC015
     FM022000 30004KT P6SM OVC025
     FM030300 00000KT P6SM OVC020
     FM030600 00000KT 3SM BR OVC012=

USA.gov is the U.S. government's official web portal to all federal, state and local government web resources and services.